sensor_id;sensor_type;location;lat;lon;timestamp;P1;durP1;ratioP1;P2;durP2;ratioP2
7817;SDS011;3954;52.624;9.212;2022-12-18T00:01:31;17.87;;;12.30;;
7817;SDS011;3954;52.624;9.212;2022-12-18T00:03:58;20.07;;;13.03;;
7817;SDS011;3954;52.624;9.212;2022-12-18T00:06:26;19.07;;;14.33;;
7817;SDS011;3954;52.624;9.212;2022-12-18T00:08:52;24.67;;;14.03;;
7817;SDS011;3954;52.624;9.212;2022-12-18T00:11:19;20.87;;;13.87;;
7817;SDS011;3954;52.624;9.212;2022-12-18T00:13:46;18.40;;;14.87;;
7817;SDS011;3954;52.624;9.212;2022-12-18T00:16:15;24.27;;;15.00;;
7817;SDS011;3954;52.624;9.212;2022-12-18T00:18:42;20.03;;;13.73;;
7817;SDS011;3954;52.624;9.212;2022-12-18T00:21:08;19.60;;;13.27;;
7817;SDS011;3954;52.624;9.212;2022-12-18T00:23:35;16.17;;;11.67;;
7817;SDS011;3954;52.624;9.212;2022-12-18T00:26:01;17.47;;;12.43;;
7817;SDS011;3954;52.624;9.212;2022-12-18T00:28:28;17.53;;;10.43;;
7817;SDS011;3954;52.624;9.212;2022-12-18T00:30:59;13.17;;;10.70;;
7817;SDS011;3954;52.624;9.212;2022-12-18T00:33:26;15.27;;;11.30;;
7817;SDS011;3954;52.624;9.212;2022-12-18T00:35:52;15.20;;;10.83;;
7817;SDS011;3954;52.624;9.212;2022-12-18T00:38:18;15.33;;;11.27;;
7817;SDS011;3954;52.624;9.212;2022-12-18T00:40:44;15.10;;;11.03;;
7817;SDS011;3954;52.624;9.212;2022-12-18T00:43:10;15.10;;;10.53;;
7817;SDS011;3954;52.624;9.212;2022-12-18T00:45:36;16.33;;;10.17;;
7817;SDS011;3954;52.624;9.212;2022-12-18T00:48:03;15.73;;;10.63;;
7817;SDS011;3954;52.624;9.212;2022-12-18T00:50:30;15.87;;;10.50;;
7817;SDS011;3954;52.624;9.212;2022-12-18T00:52:56;12.67;;;9.63;;
7817;SDS011;3954;52.624;9.212;2022-12-18T00:55:22;16.17;;;9.43;;
7817;SDS011;3954;52.624;9.212;2022-12-18T00:57:50;17.13;;;10.57;;
7817;SDS011;3954;52.624;9.212;2022-12-18T01:00:17;13.03;;;9.73;;
7817;SDS011;3954;52.624;9.212;2022-12-18T01:02:43;13.97;;;10.20;;
7817;SDS011;3954;52.624;9.212;2022-12-18T01:05:09;15.13;;;11.30;;
7817;SDS011;3954;52.624;9.212;2022-12-18T01:07:37;14.80;;;10.70;;
7817;SDS011;3954;52.624;9.212;2022-12-18T01:10:04;17.83;;;11.07;;
7817;SDS011;3954;52.624;9.212;2022-12-18T01:12:31;13.63;;;9.97;;
7817;SDS011;3954;52.624;9.212;2022-12-18T01:14:57;16.73;;;10.03;;
7817;SDS011;3954;52.624;9.212;2022-12-18T01:17:23;13.33;;;10.10;;
7817;SDS011;3954;52.624;9.212;2022-12-18T01:19:49;17.23;;;10.93;;
7817;SDS011;3954;52.624;9.212;2022-12-18T01:22:15;15.13;;;10.10;;
7817;SDS011;3954;52.624;9.212;2022-12-18T01:24:42;15.50;;;10.03;;
7817;SDS011;3954;52.624;9.212;2022-12-18T01:27:08;14.40;;;9.30;;
7817;SDS011;3954;52.624;9.212;2022-12-18T01:29:34;16.63;;;11.27;;
7817;SDS011;3954;52.624;9.212;2022-12-18T01:32:00;19.30;;;11.43;;
7817;SDS011;3954;52.624;9.212;2022-12-18T01:34:26;16.03;;;10.60;;
7817;SDS011;3954;52.624;9.212;2022-12-18T01:36:52;18.70;;;11.03;;
7817;SDS011;3954;52.624;9.212;2022-12-18T01:39:18;15.90;;;11.30;;
7817;SDS011;3954;52.624;9.212;2022-12-18T01:41:46;13.77;;;10.37;;
7817;SDS011;3954;52.624;9.212;2022-12-18T01:47:28;13.40;;;9.17;;
7817;SDS011;3954;52.624;9.212;2022-12-18T01:49:54;14.90;;;10.30;;
7817;SDS011;3954;52.624;9.212;2022-12-18T01:52:21;15.90;;;9.37;;
7817;SDS011;3954;52.624;9.212;2022-12-18T01:54:47;14.70;;;9.63;;
7817;SDS011;3954;52.624;9.212;2022-12-18T01:57:15;12.40;;;9.13;;
7817;SDS011;3954;52.624;9.212;2022-12-18T01:59:41;12.87;;;9.17;;
7817;SDS011;3954;52.624;9.212;2022-12-18T02:02:08;12.47;;;8.67;;
7817;SDS011;3954;52.624;9.212;2022-12-18T02:04:34;13.03;;;9.57;;
7817;SDS011;3954;52.624;9.212;2022-12-18T02:07:03;17.03;;;10.00;;
7817;SDS011;3954;52.624;9.212;2022-12-18T02:09:33;13.70;;;9.87;;
7817;SDS011;3954;52.624;9.212;2022-12-18T02:12:03;13.77;;;9.80;;
7817;SDS011;3954;52.624;9.212;2022-12-18T02:14:33;15.07;;;9.20;;
7817;SDS011;3954;52.624;9.212;2022-12-18T02:17:03;14.07;;;9.97;;
7817;SDS011;3954;52.624;9.212;2022-12-18T02:19:37;14.33;;;10.53;;
7817;SDS011;3954;52.624;9.212;2022-12-18T02:22:07;14.87;;;9.10;;
7817;SDS011;3954;52.624;9.212;2022-12-18T02:24:41;14.47;;;9.57;;
7817;SDS011;3954;52.624;9.212;2022-12-18T02:27:12;13.07;;;9.33;;
7817;SDS011;3954;52.624;9.212;2022-12-18T02:29:39;11.90;;;8.87;;
7817;SDS011;3954;52.624;9.212;2022-12-18T02:32:08;13.33;;;9.07;;
7817;SDS011;3954;52.624;9.212;2022-12-18T02:34:36;13.77;;;8.27;;
7817;SDS011;3954;52.624;9.212;2022-12-18T02:37:04;10.87;;;8.20;;
7817;SDS011;3954;52.624;9.212;2022-12-18T02:39:32;11.13;;;7.90;;
7817;SDS011;3954;52.624;9.212;2022-12-18T02:41:58;11.40;;;8.00;;
7817;SDS011;3954;52.624;9.212;2022-12-18T02:44:28;12.83;;;8.00;;
7817;SDS011;3954;52.624;9.212;2022-12-18T02:46:54;13.43;;;9.23;;
7817;SDS011;3954;52.624;9.212;2022-12-18T02:49:24;13.60;;;8.83;;
7817;SDS011;3954;52.624;9.212;2022-12-18T02:51:53;11.10;;;7.57;;
7817;SDS011;3954;52.624;9.212;2022-12-18T02:54:23;13.40;;;9.07;;
7817;SDS011;3954;52.624;9.212;2022-12-18T02:56:53;10.97;;;8.30;;
7817;SDS011;3954;52.624;9.212;2022-12-18T02:59:21;10.83;;;7.83;;
7817;SDS011;3954;52.624;9.212;2022-12-18T03:01:52;11.67;;;8.03;;
7817;SDS011;3954;52.624;9.212;2022-12-18T03:04:20;10.03;;;7.83;;
7817;SDS011;3954;52.624;9.212;2022-12-18T03:06:48;12.70;;;8.47;;
7817;SDS011;3954;52.624;9.212;2022-12-18T03:09:17;13.63;;;8.30;;
7817;SDS011;3954;52.624;9.212;2022-12-18T03:11:45;12.37;;;8.40;;
7817;SDS011;3954;52.624;9.212;2022-12-18T03:14:31;9.90;;;7.73;;
7817;SDS011;3954;52.624;9.212;2022-12-18T03:17:02;12.03;;;8.03;;
7817;SDS011;3954;52.624;9.212;2022-12-18T03:19:29;13.23;;;7.73;;
7817;SDS011;3954;52.624;9.212;2022-12-18T03:21:57;11.17;;;7.87;;
7817;SDS011;3954;52.624;9.212;2022-12-18T03:24:26;11.13;;;7.97;;
7817;SDS011;3954;52.624;9.212;2022-12-18T03:26:54;9.38;;;8.38;;
7817;SDS011;3954;52.624;9.212;2022-12-18T03:29:24;10.40;;;7.30;;
7817;SDS011;3954;52.624;9.212;2022-12-18T03:31:51;11.50;;;7.53;;
7817;SDS011;3954;52.624;9.212;2022-12-18T03:34:21;10.17;;;7.33;;
7817;SDS011;3954;52.624;9.212;2022-12-18T03:36:49;9.97;;;7.10;;
7817;SDS011;3954;52.624;9.212;2022-12-18T03:39:15;9.83;;;7.67;;
7817;SDS011;3954;52.624;9.212;2022-12-18T03:41:43;11.07;;;7.20;;
7817;SDS011;3954;52.624;9.212;2022-12-18T03:44:10;7.97;;;7.03;;
7817;SDS011;3954;52.624;9.212;2022-12-18T03:46:39;9.67;;;7.87;;
7817;SDS011;3954;52.624;9.212;2022-12-18T03:49:08;8.90;;;6.73;;
7817;SDS011;3954;52.624;9.212;2022-12-18T03:51:37;10.33;;;8.23;;
7817;SDS011;3954;52.624;9.212;2022-12-18T03:54:05;13.40;;;8.57;;
7817;SDS011;3954;52.624;9.212;2022-12-18T03:56:33;12.23;;;8.37;;
7817;SDS011;3954;52.624;9.212;2022-12-18T03:59:01;10.97;;;7.13;;
7817;SDS011;3954;52.624;9.212;2022-12-18T04:01:29;9.43;;;7.30;;
7817;SDS011;3954;52.624;9.212;2022-12-18T04:03:56;11.53;;;7.10;;
7817;SDS011;3954;52.624;9.212;2022-12-18T04:06:24;11.27;;;7.00;;
7817;SDS011;3954;52.624;9.212;2022-12-18T04:08:52;9.33;;;7.97;;
7817;SDS011;3954;52.624;9.212;2022-12-18T04:11:18;12.60;;;7.77;;
7817;SDS011;3954;52.624;9.212;2022-12-18T04:13:44;9.43;;;7.33;;
7817;SDS011;3954;52.624;9.212;2022-12-18T04:16:10;9.17;;;6.90;;
7817;SDS011;3954;52.624;9.212;2022-12-18T04:18:36;9.03;;;6.83;;
7817;SDS011;3954;52.624;9.212;2022-12-18T04:21:03;11.40;;;7.67;;
7817;SDS011;3954;52.624;9.212;2022-12-18T04:23:29;9.43;;;7.10;;
7817;SDS011;3954;52.624;9.212;2022-12-18T04:25:56;8.83;;;6.57;;
7817;SDS011;3954;52.624;9.212;2022-12-18T04:28:22;9.23;;;7.10;;
7817;SDS011;3954;52.624;9.212;2022-12-18T04:30:48;10.03;;;7.20;;
7817;SDS011;3954;52.624;9.212;2022-12-18T04:33:14;9.50;;;6.70;;
7817;SDS011;3954;52.624;9.212;2022-12-18T04:35:40;10.10;;;6.90;;
7817;SDS011;3954;52.624;9.212;2022-12-18T04:38:07;10.00;;;6.90;;
7817;SDS011;3954;52.624;9.212;2022-12-18T04:40:33;9.07;;;6.87;;
7817;SDS011;3954;52.624;9.212;2022-12-18T04:43:00;8.83;;;6.70;;
7817;SDS011;3954;52.624;9.212;2022-12-18T04:45:26;9.83;;;6.70;;
7817;SDS011;3954;52.624;9.212;2022-12-18T04:47:52;9.67;;;6.63;;
7817;SDS011;3954;52.624;9.212;2022-12-18T04:50:18;11.83;;;7.57;;
7817;SDS011;3954;52.624;9.212;2022-12-18T04:52:44;9.80;;;7.07;;
7817;SDS011;3954;52.624;9.212;2022-12-18T04:55:10;12.07;;;6.03;;
7817;SDS011;3954;52.624;9.212;2022-12-18T04:57:36;7.77;;;6.13;;
7817;SDS011;3954;52.624;9.212;2022-12-18T05:00:04;9.70;;;6.97;;
7817;SDS011;3954;52.624;9.212;2022-12-18T05:02:31;8.73;;;6.63;;
7817;SDS011;3954;52.624;9.212;2022-12-18T05:04:57;8.10;;;6.23;;
7817;SDS011;3954;52.624;9.212;2022-12-18T05:07:23;10.87;;;6.93;;
7817;SDS011;3954;52.624;9.212;2022-12-18T05:09:49;10.50;;;6.23;;
7817;SDS011;3954;52.624;9.212;2022-12-18T05:12:15;8.77;;;6.50;;
7817;SDS011;3954;52.624;9.212;2022-12-18T05:14:41;9.67;;;6.80;;
7817;SDS011;3954;52.624;9.212;2022-12-18T05:17:08;8.37;;;5.97;;
7817;SDS011;3954;52.624;9.212;2022-12-18T05:19:34;9.10;;;6.40;;
7817;SDS011;3954;52.624;9.212;2022-12-18T05:22:00;7.10;;;5.80;;
7817;SDS011;3954;52.624;9.212;2022-12-18T05:24:27;7.77;;;5.90;;
7817;SDS011;3954;52.624;9.212;2022-12-18T05:26:55;8.23;;;6.23;;
7817;SDS011;3954;52.624;9.212;2022-12-18T05:29:21;8.00;;;6.00;;
7817;SDS011;3954;52.624;9.212;2022-12-18T05:31:47;7.33;;;5.90;;
7817;SDS011;3954;52.624;9.212;2022-12-18T05:34:15;6.90;;;5.57;;
7817;SDS011;3954;52.624;9.212;2022-12-18T05:36:41;7.90;;;5.80;;
7817;SDS011;3954;52.624;9.212;2022-12-18T05:39:07;7.37;;;5.80;;
7817;SDS011;3954;52.624;9.212;2022-12-18T05:41:33;8.97;;;6.10;;
7817;SDS011;3954;52.624;9.212;2022-12-18T05:43:59;8.23;;;6.27;;
7817;SDS011;3954;52.624;9.212;2022-12-18T05:46:25;6.97;;;5.70;;
7817;SDS011;3954;52.624;9.212;2022-12-18T05:48:51;8.07;;;5.93;;
7817;SDS011;3954;52.624;9.212;2022-12-18T05:51:19;7.00;;;5.90;;
7817;SDS011;3954;52.624;9.212;2022-12-18T05:53:46;9.13;;;6.27;;
7817;SDS011;3954;52.624;9.212;2022-12-18T05:56:13;8.07;;;5.63;;
7817;SDS011;3954;52.624;9.212;2022-12-18T05:58:39;8.60;;;6.47;;
7817;SDS011;3954;52.624;9.212;2022-12-18T06:01:06;8.10;;;6.30;;
7817;SDS011;3954;52.624;9.212;2022-12-18T06:03:33;7.00;;;5.60;;
7817;SDS011;3954;52.624;9.212;2022-12-18T06:05:59;7.43;;;6.10;;
7817;SDS011;3954;52.624;9.212;2022-12-18T06:08:26;8.07;;;5.47;;
7817;SDS011;3954;52.624;9.212;2022-12-18T06:10:52;7.40;;;5.83;;
7817;SDS011;3954;52.624;9.212;2022-12-18T06:13:18;8.97;;;5.93;;
7817;SDS011;3954;52.624;9.212;2022-12-18T06:15:45;7.70;;;5.60;;
7817;SDS011;3954;52.624;9.212;2022-12-18T06:18:11;7.70;;;5.90;;
7817;SDS011;3954;52.624;9.212;2022-12-18T06:20:37;7.57;;;6.10;;
7817;SDS011;3954;52.624;9.212;2022-12-18T06:23:04;9.20;;;5.80;;
7817;SDS011;3954;52.624;9.212;2022-12-18T06:25:32;7.90;;;6.07;;
7817;SDS011;3954;52.624;9.212;2022-12-18T06:27:58;6.40;;;5.67;;
7817;SDS011;3954;52.624;9.212;2022-12-18T06:30:24;10.87;;;6.07;;
7817;SDS011;3954;52.624;9.212;2022-12-18T06:32:50;8.37;;;5.93;;
7817;SDS011;3954;52.624;9.212;2022-12-18T06:35:16;8.93;;;5.50;;
7817;SDS011;3954;52.624;9.212;2022-12-18T06:37:42;6.93;;;5.57;;
7817;SDS011;3954;52.624;9.212;2022-12-18T06:40:09;9.40;;;5.60;;
7817;SDS011;3954;52.624;9.212;2022-12-18T06:42:36;10.77;;;6.23;;
7817;SDS011;3954;52.624;9.212;2022-12-18T06:45:02;8.73;;;5.73;;
7817;SDS011;3954;52.624;9.212;2022-12-18T06:47:28;7.67;;;6.17;;
7817;SDS011;3954;52.624;9.212;2022-12-18T06:49:54;6.87;;;5.57;;
7817;SDS011;3954;52.624;9.212;2022-12-18T06:52:20;7.17;;;5.60;;
7817;SDS011;3954;52.624;9.212;2022-12-18T06:54:46;12.40;;;6.07;;
7817;SDS011;3954;52.624;9.212;2022-12-18T06:57:12;10.17;;;6.13;;
7817;SDS011;3954;52.624;9.212;2022-12-18T06:59:40;9.10;;;5.97;;
7817;SDS011;3954;52.624;9.212;2022-12-18T07:02:06;10.83;;;6.17;;
7817;SDS011;3954;52.624;9.212;2022-12-18T07:04:32;9.07;;;5.07;;
7817;SDS011;3954;52.624;9.212;2022-12-18T07:06:58;7.80;;;5.93;;
7817;SDS011;3954;52.624;9.212;2022-12-18T07:09:24;11.30;;;5.70;;
7817;SDS011;3954;52.624;9.212;2022-12-18T07:11:50;6.67;;;5.93;;
7817;SDS011;3954;52.624;9.212;2022-12-18T07:14:16;8.20;;;6.13;;
7817;SDS011;3954;52.624;9.212;2022-12-18T07:16:44;8.60;;;6.70;;
7817;SDS011;3954;52.624;9.212;2022-12-18T07:19:10;11.37;;;8.00;;
7817;SDS011;3954;52.624;9.212;2022-12-18T07:21:36;8.27;;;6.90;;
7817;SDS011;3954;52.624;9.212;2022-12-18T07:24:02;9.80;;;7.27;;
7817;SDS011;3954;52.624;9.212;2022-12-18T07:26:28;13.73;;;12.23;;
7817;SDS011;3954;52.624;9.212;2022-12-18T07:28:54;12.07;;;9.83;;
7817;SDS011;3954;52.624;9.212;2022-12-18T07:31:21;10.47;;;8.27;;
7817;SDS011;3954;52.624;9.212;2022-12-18T07:33:48;8.77;;;6.73;;
7817;SDS011;3954;52.624;9.212;2022-12-18T07:36:15;8.10;;;6.73;;
7817;SDS011;3954;52.624;9.212;2022-12-18T07:38:41;11.10;;;6.63;;
7817;SDS011;3954;52.624;9.212;2022-12-18T07:41:08;10.17;;;7.03;;
7817;SDS011;3954;52.624;9.212;2022-12-18T07:43:35;10.57;;;6.77;;
7817;SDS011;3954;52.624;9.212;2022-12-18T07:46:01;11.43;;;7.53;;
7817;SDS011;3954;52.624;9.212;2022-12-18T07:48:27;9.87;;;7.40;;
7817;SDS011;3954;52.624;9.212;2022-12-18T07:50:57;9.63;;;7.70;;
7817;SDS011;3954;52.624;9.212;2022-12-18T07:53:23;9.53;;;7.47;;
7817;SDS011;3954;52.624;9.212;2022-12-18T07:55:54;9.97;;;7.67;;
7817;SDS011;3954;52.624;9.212;2022-12-18T07:58:20;10.83;;;7.17;;
7817;SDS011;3954;52.624;9.212;2022-12-18T08:00:46;12.03;;;7.93;;
7817;SDS011;3954;52.624;9.212;2022-12-18T08:03:12;11.07;;;7.23;;
7817;SDS011;3954;52.624;9.212;2022-12-18T08:05:38;11.57;;;7.27;;
7817;SDS011;3954;52.624;9.212;2022-12-18T08:08:05;10.40;;;7.63;;
7817;SDS011;3954;52.624;9.212;2022-12-18T08:10:31;11.60;;;8.17;;
7817;SDS011;3954;52.624;9.212;2022-12-18T08:12:57;10.90;;;7.87;;
7817;SDS011;3954;52.624;9.212;2022-12-18T08:15:23;11.43;;;7.60;;
7817;SDS011;3954;52.624;9.212;2022-12-18T08:17:49;10.87;;;8.53;;
7817;SDS011;3954;52.624;9.212;2022-12-18T08:20:15;13.73;;;9.40;;
7817;SDS011;3954;52.624;9.212;2022-12-18T08:22:43;16.40;;;10.40;;
7817;SDS011;3954;52.624;9.212;2022-12-18T08:25:10;17.80;;;12.40;;
7817;SDS011;3954;52.624;9.212;2022-12-18T08:27:36;19.47;;;12.70;;
7817;SDS011;3954;52.624;9.212;2022-12-18T08:30:03;15.93;;;11.90;;
7817;SDS011;3954;52.624;9.212;2022-12-18T08:32:29;12.97;;;10.10;;
7817;SDS011;3954;52.624;9.212;2022-12-18T08:34:57;14.87;;;10.53;;
7817;SDS011;3954;52.624;9.212;2022-12-18T08:37:23;12.03;;;9.17;;
7817;SDS011;3954;52.624;9.212;2022-12-18T08:39:49;12.47;;;9.37;;
7817;SDS011;3954;52.624;9.212;2022-12-18T08:42:16;13.87;;;9.13;;
7817;SDS011;3954;52.624;9.212;2022-12-18T08:45:01;12.57;;;8.67;;
7817;SDS011;3954;52.624;9.212;2022-12-18T08:47:27;10.60;;;7.80;;
7817;SDS011;3954;52.624;9.212;2022-12-18T08:49:53;10.37;;;7.23;;
7817;SDS011;3954;52.624;9.212;2022-12-18T08:52:19;11.43;;;7.53;;
7817;SDS011;3954;52.624;9.212;2022-12-18T08:54:45;9.80;;;6.30;;
7817;SDS011;3954;52.624;9.212;2022-12-18T08:57:11;8.47;;;5.63;;
7817;SDS011;3954;52.624;9.212;2022-12-18T08:59:39;8.23;;;5.83;;
7817;SDS011;3954;52.624;9.212;2022-12-18T09:02:05;7.03;;;5.60;;
7817;SDS011;3954;52.624;9.212;2022-12-18T09:04:31;8.17;;;5.67;;
7817;SDS011;3954;52.624;9.212;2022-12-18T09:06:57;6.83;;;5.60;;
7817;SDS011;3954;52.624;9.212;2022-12-18T09:09:23;7.67;;;6.20;;
7817;SDS011;3954;52.624;9.212;2022-12-18T09:11:49;7.67;;;5.97;;
7817;SDS011;3954;52.624;9.212;2022-12-18T09:14:15;9.20;;;6.53;;
7817;SDS011;3954;52.624;9.212;2022-12-18T09:16:42;8.77;;;6.17;;
7817;SDS011;3954;52.624;9.212;2022-12-18T09:19:08;7.83;;;6.77;;
7817;SDS011;3954;52.624;9.212;2022-12-18T09:21:35;8.80;;;7.10;;
7817;SDS011;3954;52.624;9.212;2022-12-18T09:24:01;10.60;;;9.50;;
7817;SDS011;3954;52.624;9.212;2022-12-18T09:26:27;9.57;;;8.57;;
7817;SDS011;3954;52.624;9.212;2022-12-18T09:28:53;8.40;;;7.47;;
7817;SDS011;3954;52.624;9.212;2022-12-18T09:31:21;10.13;;;7.10;;
7817;SDS011;3954;52.624;9.212;2022-12-18T09:33:48;8.80;;;7.63;;
7817;SDS011;3954;52.624;9.212;2022-12-18T09:36:15;9.17;;;7.50;;
7817;SDS011;3954;52.624;9.212;2022-12-18T09:38:42;9.07;;;6.83;;
7817;SDS011;3954;52.624;9.212;2022-12-18T09:41:15;7.93;;;7.10;;
7817;SDS011;3954;52.624;9.212;2022-12-18T09:43:44;6.40;;;5.70;;
7817;SDS011;3954;52.624;9.212;2022-12-18T09:46:26;7.17;;;6.47;;
7817;SDS011;3954;52.624;9.212;2022-12-18T09:48:56;9.97;;;6.60;;
7817;SDS011;3954;52.624;9.212;2022-12-18T09:51:24;8.17;;;6.67;;
7817;SDS011;3954;52.624;9.212;2022-12-18T09:53:53;8.50;;;7.33;;
7817;SDS011;3954;52.624;9.212;2022-12-18T09:56:21;8.63;;;5.90;;
7817;SDS011;3954;52.624;9.212;2022-12-18T09:58:50;6.53;;;5.90;;
7817;SDS011;3954;52.624;9.212;2022-12-18T10:01:18;8.53;;;7.03;;
7817;SDS011;3954;52.624;9.212;2022-12-18T10:03:46;9.70;;;7.07;;
7817;SDS011;3954;52.624;9.212;2022-12-18T10:06:13;11.37;;;8.17;;
7817;SDS011;3954;52.624;9.212;2022-12-18T10:08:42;14.17;;;9.33;;
7817;SDS011;3954;52.624;9.212;2022-12-18T10:11:16;15.33;;;10.13;;
7817;SDS011;3954;52.624;9.212;2022-12-18T10:13:48;11.53;;;9.53;;
7817;SDS011;3954;52.624;9.212;2022-12-18T10:16:19;9.70;;;8.27;;
7817;SDS011;3954;52.624;9.212;2022-12-18T10:18:56;10.60;;;8.57;;
7817;SDS011;3954;52.624;9.212;2022-12-18T10:21:29;10.00;;;8.03;;
7817;SDS011;3954;52.624;9.212;2022-12-18T10:23:57;8.53;;;7.60;;
7817;SDS011;3954;52.624;9.212;2022-12-18T10:26:26;10.57;;;8.70;;
7817;SDS011;3954;52.624;9.212;2022-12-18T10:28:52;11.70;;;9.50;;
7817;SDS011;3954;52.624;9.212;2022-12-18T10:31:20;15.60;;;9.90;;
7817;SDS011;3954;52.624;9.212;2022-12-18T10:33:47;10.97;;;8.30;;
7817;SDS011;3954;52.624;9.212;2022-12-18T10:36:13;10.20;;;8.03;;
7817;SDS011;3954;52.624;9.212;2022-12-18T10:38:41;10.73;;;7.90;;
7817;SDS011;3954;52.624;9.212;2022-12-18T10:41:22;9.37;;;7.60;;
7817;SDS011;3954;52.624;9.212;2022-12-18T10:43:53;10.27;;;7.97;;
7817;SDS011;3954;52.624;9.212;2022-12-18T10:46:35;10.33;;;7.60;;
7817;SDS011;3954;52.624;9.212;2022-12-18T10:49:01;8.70;;;7.50;;
7817;SDS011;3954;52.624;9.212;2022-12-18T10:51:28;13.00;;;8.83;;
7817;SDS011;3954;52.624;9.212;2022-12-18T10:53:57;9.67;;;7.03;;
7817;SDS011;3954;52.624;9.212;2022-12-18T10:56:26;10.03;;;7.43;;
7817;SDS011;3954;52.624;9.212;2022-12-18T10:58:56;8.67;;;7.07;;
7817;SDS011;3954;52.624;9.212;2022-12-18T11:01:23;8.43;;;7.47;;
7817;SDS011;3954;52.624;9.212;2022-12-18T11:03:58;8.27;;;7.33;;
7817;SDS011;3954;52.624;9.212;2022-12-18T11:06:25;8.10;;;6.60;;
7817;SDS011;3954;52.624;9.212;2022-12-18T11:08:58;8.83;;;6.13;;
7817;SDS011;3954;52.624;9.212;2022-12-18T11:11:24;6.83;;;5.60;;
7817;SDS011;3954;52.624;9.212;2022-12-18T11:13:54;10.30;;;6.73;;
7817;SDS011;3954;52.624;9.212;2022-12-18T11:16:22;7.53;;;5.73;;
7817;SDS011;3954;52.624;9.212;2022-12-18T11:18:48;7.77;;;5.60;;
7817;SDS011;3954;52.624;9.212;2022-12-18T11:21:15;6.57;;;5.77;;
7817;SDS011;3954;52.624;9.212;2022-12-18T11:23:44;7.97;;;5.27;;
7817;SDS011;3954;52.624;9.212;2022-12-18T11:26:13;6.93;;;5.03;;
7817;SDS011;3954;52.624;9.212;2022-12-18T11:28:39;6.00;;;5.17;;
7817;SDS011;3954;52.624;9.212;2022-12-18T11:31:16;7.07;;;5.50;;
7817;SDS011;3954;52.624;9.212;2022-12-18T11:33:44;6.60;;;5.30;;
7817;SDS011;3954;52.624;9.212;2022-12-18T11:36:11;6.37;;;5.37;;
7817;SDS011;3954;52.624;9.212;2022-12-18T11:38:38;6.07;;;5.07;;
7817;SDS011;3954;52.624;9.212;2022-12-18T11:41:07;7.37;;;5.53;;
7817;SDS011;3954;52.624;9.212;2022-12-18T11:43:38;8.30;;;6.07;;
7817;SDS011;3954;52.624;9.212;2022-12-18T11:46:06;6.73;;;6.03;;
7817;SDS011;3954;52.624;9.212;2022-12-18T11:48:36;6.83;;;5.20;;
7817;SDS011;3954;52.624;9.212;2022-12-18T11:51:04;6.63;;;5.00;;
7817;SDS011;3954;52.624;9.212;2022-12-18T11:53:31;5.87;;;5.03;;
7817;SDS011;3954;52.624;9.212;2022-12-18T11:56:02;6.67;;;4.67;;
7817;SDS011;3954;52.624;9.212;2022-12-18T11:58:34;5.17;;;4.67;;
7817;SDS011;3954;52.624;9.212;2022-12-18T12:01:09;6.73;;;4.90;;
7817;SDS011;3954;52.624;9.212;2022-12-18T12:03:44;5.87;;;4.37;;
7817;SDS011;3954;52.624;9.212;2022-12-18T12:06:14;5.17;;;4.67;;
7817;SDS011;3954;52.624;9.212;2022-12-18T12:08:48;5.27;;;4.27;;
7817;SDS011;3954;52.624;9.212;2022-12-18T12:11:20;5.97;;;4.50;;
7817;SDS011;3954;52.624;9.212;2022-12-18T12:13:54;7.50;;;5.00;;
7817;SDS011;3954;52.624;9.212;2022-12-18T12:16:25;4.90;;;4.40;;
7817;SDS011;3954;52.624;9.212;2022-12-18T12:19:02;7.40;;;4.77;;
7817;SDS011;3954;52.624;9.212;2022-12-18T12:21:35;5.97;;;4.50;;
7817;SDS011;3954;52.624;9.212;2022-12-18T12:24:03;5.27;;;4.63;;
7817;SDS011;3954;52.624;9.212;2022-12-18T12:26:33;6.87;;;4.30;;
7817;SDS011;3954;52.624;9.212;2022-12-18T12:29:04;5.07;;;4.13;;
7817;SDS011;3954;52.624;9.212;2022-12-18T12:31:36;5.80;;;4.17;;
7817;SDS011;3954;52.624;9.212;2022-12-18T12:34:07;5.50;;;3.97;;
7817;SDS011;3954;52.624;9.212;2022-12-18T12:36:36;5.37;;;4.20;;
7817;SDS011;3954;52.624;9.212;2022-12-18T12:39:07;4.33;;;3.63;;
7817;SDS011;3954;52.624;9.212;2022-12-18T12:41:36;6.20;;;4.17;;
7817;SDS011;3954;52.624;9.212;2022-12-18T12:44:22;5.53;;;4.40;;
7817;SDS011;3954;52.624;9.212;2022-12-18T12:46:51;5.00;;;4.20;;
7817;SDS011;3954;52.624;9.212;2022-12-18T12:49:18;5.27;;;3.97;;
7817;SDS011;3954;52.624;9.212;2022-12-18T12:51:47;5.30;;;3.57;;
7817;SDS011;3954;52.624;9.212;2022-12-18T12:54:16;5.10;;;3.97;;
7817;SDS011;3954;52.624;9.212;2022-12-18T12:56:44;4.60;;;3.33;;
7817;SDS011;3954;52.624;9.212;2022-12-18T12:59:13;8.73;;;5.73;;
7817;SDS011;3954;52.624;9.212;2022-12-18T13:01:40;5.00;;;4.00;;
7817;SDS011;3954;52.624;9.212;2022-12-18T13:04:12;5.67;;;3.87;;
7817;SDS011;3954;52.624;9.212;2022-12-18T13:06:40;4.70;;;4.00;;
7817;SDS011;3954;52.624;9.212;2022-12-18T13:09:09;4.43;;;3.47;;
7817;SDS011;3954;52.624;9.212;2022-12-18T13:11:36;6.03;;;4.20;;
7817;SDS011;3954;52.624;9.212;2022-12-18T13:14:22;4.23;;;3.70;;
7817;SDS011;3954;52.624;9.212;2022-12-18T13:16:48;6.03;;;4.40;;
7817;SDS011;3954;52.624;9.212;2022-12-18T13:19:21;6.30;;;3.83;;
7817;SDS011;3954;52.624;9.212;2022-12-18T13:21:51;5.10;;;4.00;;
7817;SDS011;3954;52.624;9.212;2022-12-18T13:24:21;5.63;;;3.97;;
7817;SDS011;3954;52.624;9.212;2022-12-18T13:26:48;4.50;;;3.77;;
7817;SDS011;3954;52.624;9.212;2022-12-18T13:29:21;7.93;;;4.40;;
7817;SDS011;3954;52.624;9.212;2022-12-18T13:32:16;5.90;;;3.50;;
7817;SDS011;3954;52.624;9.212;2022-12-18T13:34:46;7.70;;;4.30;;
7817;SDS011;3954;52.624;9.212;2022-12-18T13:39:57;7.07;;;4.60;;
7817;SDS011;3954;52.624;9.212;2022-12-18T13:42:36;6.93;;;4.83;;
7817;SDS011;3954;52.624;9.212;2022-12-18T13:45:38;5.07;;;4.27;;
7817;SDS011;3954;52.624;9.212;2022-12-18T13:48:10;6.77;;;5.60;;
7817;SDS011;3954;52.624;9.212;2022-12-18T13:50:41;9.57;;;6.40;;
7817;SDS011;3954;52.624;9.212;2022-12-18T13:53:11;8.67;;;6.10;;
7817;SDS011;3954;52.624;9.212;2022-12-18T13:55:43;6.57;;;5.23;;
7817;SDS011;3954;52.624;9.212;2022-12-18T13:58:11;7.83;;;6.27;;
7817;SDS011;3954;52.624;9.212;2022-12-18T14:00:40;6.13;;;5.40;;
7817;SDS011;3954;52.624;9.212;2022-12-18T14:03:15;8.27;;;5.90;;
7817;SDS011;3954;52.624;9.212;2022-12-18T14:05:43;6.37;;;5.17;;
7817;SDS011;3954;52.624;9.212;2022-12-18T14:08:12;8.23;;;5.40;;
7817;SDS011;3954;52.624;9.212;2022-12-18T14:10:39;7.00;;;5.60;;
7817;SDS011;3954;52.624;9.212;2022-12-18T14:13:07;6.80;;;5.83;;
7817;SDS011;3954;52.624;9.212;2022-12-18T14:15:34;8.30;;;5.70;;
7817;SDS011;3954;52.624;9.212;2022-12-18T14:18:02;6.37;;;5.07;;
7817;SDS011;3954;52.624;9.212;2022-12-18T14:20:29;8.20;;;5.87;;
7817;SDS011;3954;52.624;9.212;2022-12-18T14:22:57;6.10;;;4.60;;
7817;SDS011;3954;52.624;9.212;2022-12-18T14:25:24;7.23;;;6.40;;
7817;SDS011;3954;52.624;9.212;2022-12-18T14:27:51;9.97;;;7.57;;
7817;SDS011;3954;52.624;9.212;2022-12-18T14:30:23;7.60;;;5.53;;
7817;SDS011;3954;52.624;9.212;2022-12-18T14:32:59;7.90;;;5.30;;
7817;SDS011;3954;52.624;9.212;2022-12-18T14:35:25;7.87;;;5.60;;
7817;SDS011;3954;52.624;9.212;2022-12-18T14:37:51;6.00;;;5.40;;
7817;SDS011;3954;52.624;9.212;2022-12-18T14:40:19;7.27;;;5.70;;
7817;SDS011;3954;52.624;9.212;2022-12-18T14:42:45;10.33;;;7.33;;
7817;SDS011;3954;52.624;9.212;2022-12-18T14:47:54;11.50;;;6.90;;
7817;SDS011;3954;52.624;9.212;2022-12-18T14:50:20;8.40;;;6.37;;
7817;SDS011;3954;52.624;9.212;2022-12-18T14:52:46;9.50;;;6.27;;
7817;SDS011;3954;52.624;9.212;2022-12-18T14:55:14;8.00;;;5.73;;
7817;SDS011;3954;52.624;9.212;2022-12-18T14:57:42;8.17;;;6.03;;
7817;SDS011;3954;52.624;9.212;2022-12-18T15:00:11;11.97;;;7.33;;
7817;SDS011;3954;52.624;9.212;2022-12-18T15:02:40;8.70;;;6.73;;
7817;SDS011;3954;52.624;9.212;2022-12-18T15:05:15;8.93;;;6.00;;
7817;SDS011;3954;52.624;9.212;2022-12-18T15:07:43;7.83;;;5.40;;
7817;SDS011;3954;52.624;9.212;2022-12-18T15:10:10;9.03;;;6.10;;
7817;SDS011;3954;52.624;9.212;2022-12-18T15:12:37;6.80;;;5.87;;
7817;SDS011;3954;52.624;9.212;2022-12-18T15:17:47;6.40;;;5.37;;
7817;SDS011;3954;52.624;9.212;2022-12-18T15:20:13;6.77;;;5.30;;
7817;SDS011;3954;52.624;9.212;2022-12-18T15:22:39;7.43;;;5.33;;
7817;SDS011;3954;52.624;9.212;2022-12-18T15:25:22;8.00;;;5.47;;